createdAt,value
2022-12-25T00:00:57.185Z,93351.22
2022-12-25T00:02:30.233Z,93340.53
2022-12-25T00:04:01.966Z,93351.75
2022-12-25T00:05:33.596Z,93352.03
2022-12-25T00:07:05.576Z,93358.66
2022-12-25T00:08:37.406Z,93355.75
2022-12-25T00:10:09.882Z,93365.88
2022-12-25T00:11:43.049Z,93360.53
2022-12-25T00:13:14.672Z,93360.25
2022-12-25T00:14:46.737Z,93370.13
2022-12-25T00:16:19.508Z,93374.13
2022-12-25T00:17:51.162Z,93376.25
2022-12-25T00:19:22.801Z,93366.38
2022-12-25T00:21:01.108Z,93371.19
2022-12-25T00:22:32.701Z,93378.69
2022-12-25T00:24:04.608Z,93389.84
2022-12-25T00:25:39.339Z,93376.25
2022-12-25T00:27:10.976Z,93374.69
2022-12-25T00:28:42.811Z,93381.34
2022-12-25T00:30:14.576Z,93377.06
2022-12-25T00:31:46.293Z,93386.13
2022-12-25T00:33:18.162Z,93381.88
2022-12-25T00:34:49.943Z,93384.28
2022-12-25T00:36:21.967Z,93386.13
2022-12-25T00:37:53.529Z,93386.13
2022-12-25T00:39:25.202Z,93386.91
2022-12-25T00:40:56.766Z,93380.50
2022-12-25T00:42:29.166Z,93384.50
2022-12-25T00:44:00.805Z,93375.69
2022-12-25T00:45:32.532Z,93374.63
2022-12-25T00:47:04.392Z,93375.44
2022-12-25T00:48:36.100Z,93366.16
2022-12-25T00:50:08.156Z,93372.28
2022-12-25T00:51:39.903Z,93364.81
2022-12-25T00:53:11.491Z,93375.47
2022-12-25T00:54:43.088Z,93372.25
2022-12-25T00:56:14.671Z,93370.91
2022-12-25T00:57:46.231Z,93363.72
2022-12-25T00:59:18.061Z,93364.25
2022-12-25T01:00:49.996Z,93369.06
2022-12-25T01:02:24.805Z,93363.19
2022-12-25T01:03:56.749Z,93359.44
2022-12-25T01:05:28.437Z,93354.63
2022-12-25T01:06:59.998Z,93353.56
2022-12-25T01:08:32.342Z,93360.78
2022-12-25T01:10:22.772Z,93362.94
2022-12-25T01:11:54.482Z,93362.13
2022-12-25T01:13:26.173Z,93360.53
2022-12-25T01:14:57.814Z,93360.81
2022-12-25T01:16:29.548Z,93361.59
2022-12-25T01:18:05.770Z,93364.78
2022-12-25T01:19:39.358Z,93357.06
2022-12-25T01:21:11.321Z,93366.69
2022-12-25T01:22:43.174Z,93361.88
2022-12-25T01:24:14.734Z,93366.16
2022-12-25T01:25:46.407Z,93369.06
2022-12-25T01:27:17.982Z,93364.56
2022-12-25T01:28:49.740Z,93367.47
2022-12-25T01:30:21.284Z,93369.63
2022-12-25T01:31:52.870Z,93371.25
2022-12-25T01:33:24.417Z,93370.44
2022-12-25T01:34:56.550Z,93361.09
2022-12-25T01:36:28.227Z,93358.41
2022-12-25T01:37:59.884Z,93359.50
2022-12-25T01:39:31.959Z,93357.38
2022-12-25T01:41:03.568Z,93351.47
2022-12-25T01:42:35.208Z,93357.63
2022-12-25T01:44:08.169Z,93361.63
2022-12-25T01:45:42.648Z,93355.22
2022-12-25T01:47:14.249Z,93355.22
2022-12-25T01:48:46.010Z,93357.88
2022-12-25T01:50:17.699Z,93356.00
2022-12-25T01:51:53.340Z,93352.50
2022-12-25T01:53:24.928Z,93358.94
2022-12-25T01:54:57.568Z,93359.47
2022-12-25T01:56:29.177Z,93359.97
2022-12-25T01:58:00.807Z,93363.44
2022-12-25T01:59:32.427Z,93365.31
2022-12-25T02:01:04.040Z,93362.13
2022-12-25T02:02:35.822Z,93359.47
2022-12-25T02:04:38.953Z,93367.22
2022-12-25T02:06:10.732Z,93373.31
2022-12-25T02:07:42.287Z,93376.53
2022-12-25T02:09:13.966Z,93378.38
2022-12-25T02:10:45.588Z,93378.38
2022-12-25T02:12:24.434Z,93381.06
2022-12-25T02:13:55.973Z,93387.75
2022-12-25T02:15:29.568Z,93377.63
2022-12-25T02:17:21.516Z,93387.75
2022-12-25T02:18:54.130Z,93383.22
2022-12-25T02:20:31.567Z,93381.63
2022-12-25T02:22:09.336Z,93392.03
2022-12-25T02:23:53.229Z,93391.22
2022-12-25T02:25:51.256Z,93387.22
2022-12-25T02:27:41.617Z,93388.81
2022-12-25T02:29:17.500Z,93395.50
2022-12-25T02:30:54.111Z,93394.16
2022-12-25T02:32:33.999Z,93393.63
2022-12-25T02:34:08.897Z,93391.50
2022-12-25T02:35:41.051Z,93393.09
2022-12-25T02:37:12.601Z,93395.78
2022-12-25T02:39:04.248Z,93392.84
2022-12-25T02:40:41.286Z,93395.50
2022-12-25T02:42:15.043Z,93393.09
2022-12-25T02:44:05.308Z,93389.63
2022-12-25T02:46:10.528Z,93392.03
2022-12-25T02:48:00.580Z,93386.41
2022-12-25T02:49:50.607Z,93388.56
2022-12-25T02:51:41.990Z,93387.50
2022-12-25T02:53:32.373Z,93387.75
2022-12-25T02:55:24.288Z,93396.56
2022-12-25T02:57:14.578Z,93398.72
2022-12-25T02:59:04.657Z,93398.72
2022-12-25T03:00:56.526Z,93392.59
2022-12-25T03:02:46.855Z,93392.84
2022-12-25T03:04:37.273Z,93401.38
2022-12-25T03:06:27.063Z,93395.78
2022-12-25T03:07:58.924Z,93401.09
2022-12-25T03:09:50.611Z,93402.97
2022-12-25T03:11:40.197Z,93410.19
2022-12-25T03:13:16.589Z,93407.50
2022-12-25T03:15:06.900Z,93412.06
2022-12-25T03:16:50.676Z,93415.78
2022-12-25T03:18:24.537Z,93417.66
2022-12-25T03:20:15.101Z,93418.72
2022-12-25T03:22:05.345Z,93421.41
2022-12-25T03:23:56.323Z,93427.00
2022-12-25T03:25:46.324Z,93433.13
2022-12-25T03:27:18.044Z,93432.34
2022-12-25T03:28:49.555Z,93438.47
2022-12-25T03:30:40.513Z,93433.94
2022-12-25T03:32:18.587Z,93441.16
2022-12-25T03:34:23.512Z,93436.91
2022-12-25T03:36:04.803Z,93441.72
2022-12-25T03:37:45.609Z,93437.16
2022-12-25T03:39:40.587Z,93441.72
2022-12-25T03:41:52.692Z,93446.75
2022-12-25T03:43:32.889Z,93443.31
2022-12-25T03:45:06.577Z,93436.38
2022-12-25T03:47:11.996Z,93434.22
2022-12-25T03:49:02.281Z,93437.16
2022-12-25T03:50:59.858Z,93440.34
2022-12-25T03:52:50.349Z,93442.78
2022-12-25T03:54:41.741Z,93448.09
2022-12-25T03:56:31.832Z,93444.06
2022-12-25T03:58:22.070Z,93443.00
2022-12-25T04:00:12.231Z,93452.06
2022-12-25T04:02:02.582Z,93447.53
2022-12-25T04:03:53.055Z,93453.69
2022-12-25T04:05:43.073Z,93456.59
2022-12-25T04:07:33.061Z,93453.34
2022-12-25T04:09:23.021Z,93453.09
2022-12-25T04:11:12.903Z,93453.63
2022-12-25T04:13:03.343Z,93449.63
2022-12-25T04:14:53.686Z,93445.63
2022-12-25T04:16:43.703Z,93450.16
2022-12-25T04:18:33.979Z,93451.25
2022-12-25T04:20:24.422Z,93453.38
2022-12-25T04:22:14.428Z,93452.84
2022-12-25T04:24:04.217Z,93452.03
2022-12-25T04:25:54.356Z,93465.38
2022-12-25T04:27:44.258Z,93457.34
2022-12-25T04:29:34.176Z,93462.63
2022-12-25T04:31:24.124Z,93460.50
2022-12-25T04:33:17.212Z,93468.25
2022-12-25T04:35:07.489Z,93468.00
2022-12-25T04:36:39.151Z,93469.81
2022-12-25T04:38:10.728Z,93468.44
2022-12-25T04:39:42.447Z,93473.50
2022-12-25T04:41:14.658Z,93468.72
2022-12-25T04:42:46.307Z,93474.56
2022-12-25T04:44:18.056Z,93482.78
2022-12-25T04:45:53.891Z,93483.56
2022-12-25T04:47:25.716Z,93493.69
2022-12-25T04:48:57.440Z,93492.84
2022-12-25T04:50:29.106Z,93498.97
2022-12-25T04:52:00.958Z,93498.97
2022-12-25T04:53:32.579Z,93504.56
2022-12-25T04:55:04.605Z,93499.47
2022-12-25T04:56:41.595Z,93507.16
2022-12-25T04:58:17.087Z,93511.13
2022-12-25T04:59:48.611Z,93504.19
2022-12-25T05:01:20.293Z,93515.84
2022-12-25T05:02:52.226Z,93515.81
2022-12-25T05:04:24.144Z,93522.19
2022-12-25T05:05:56.242Z,93520.81
2022-12-25T05:07:27.881Z,93524.03
2022-12-25T05:08:59.502Z,93518.47
2022-12-25T05:10:31.051Z,93516.38
2022-12-25T05:12:02.573Z,93520.09
2022-12-25T05:13:34.408Z,93516.38
2022-12-25T05:15:06.096Z,93516.06
2022-12-25T05:16:37.813Z,93514.69
2022-12-25T05:18:09.513Z,93527.44
2022-12-25T05:19:41.269Z,93520.19
2022-12-25T05:21:12.922Z,93517.75
2022-12-25T05:22:44.616Z,93520.38
2022-12-25T05:24:16.223Z,93515.78
2022-12-25T05:25:47.910Z,93516.31
2022-12-25T05:27:19.398Z,93521.59
2022-12-25T05:28:51.133Z,93530.59
2022-12-25T05:30:22.745Z,93524.94
2022-12-25T05:31:54.386Z,93525.13
2022-12-25T05:33:26.197Z,93535.47
2022-12-25T05:35:00.155Z,93531.97
2022-12-25T05:36:31.772Z,93533.25
2022-12-25T05:38:03.369Z,93532.13
2022-12-25T05:39:37.515Z,93536.94
2022-12-25T05:41:09.339Z,93542.50
2022-12-25T05:42:40.856Z,93542.44
2022-12-25T05:44:12.466Z,93548.28
2022-12-25T05:45:45.418Z,93538.41
2022-12-25T05:47:17.046Z,93543.47
2022-12-25T05:48:48.758Z,93548.53
2022-12-25T05:50:20.551Z,93546.09
2022-12-25T05:51:52.532Z,93538.88
2022-12-25T05:53:24.286Z,93547.66
2022-12-25T05:54:55.863Z,93554.09
2022-12-25T05:56:27.635Z,93554.09
2022-12-25T05:57:59.516Z,93555.94
2022-12-25T05:59:31.535Z,93563.34
2022-12-25T06:01:03.323Z,93561.44
2022-12-25T06:02:35.756Z,93556.31
2022-12-25T06:04:12.423Z,93558.59
2022-12-25T06:05:44.761Z,93557.25
2022-12-25T06:07:16.380Z,93556.69
2022-12-25T06:08:48.031Z,93573.69
2022-12-25T06:10:19.703Z,93564.91
2022-12-25T06:11:51.380Z,93566.75
2022-12-25T06:13:23.023Z,93564.91
2022-12-25T06:14:54.679Z,93573.06
2022-12-25T06:16:26.337Z,93568.31
2022-12-25T06:17:59.924Z,93570.72
2022-12-25T06:19:31.605Z,93571.53
2022-12-25T06:21:06.797Z,93576.09
2022-12-25T06:22:38.421Z,93576.47
2022-12-25T06:24:13.365Z,93583.50
2022-12-25T06:25:47.922Z,93579.91
2022-12-25T06:27:19.662Z,93584.03
2022-12-25T06:28:51.403Z,93589.78
2022-12-25T06:30:22.925Z,93590.13
2022-12-25T06:31:57.460Z,93588.09
2022-12-25T06:33:29.307Z,93591.34
2022-12-25T06:35:00.836Z,93591.66
2022-12-25T06:36:32.464Z,93591.13
2022-12-25T06:38:03.971Z,93592.72
2022-12-25T06:39:35.629Z,93600.22
2022-12-25T06:41:16.734Z,93593.09
2022-12-25T06:42:48.321Z,93601.03
2022-12-25T06:44:19.884Z,93595.22
2022-12-25T06:45:53.266Z,93598.75
2022-12-25T06:47:24.985Z,93598.88
2022-12-25T06:48:57.244Z,93596.88
2022-12-25T06:50:28.761Z,93599.09
2022-12-25T06:52:01.056Z,93605.31
2022-12-25T06:53:39.806Z,93601.41
2022-12-25T06:55:12.316Z,93594.81
2022-12-25T06:56:43.995Z,93600.50
2022-12-25T06:58:15.630Z,93602.72
2022-12-25T06:59:52.994Z,93605.97
2022-12-25T07:01:26.625Z,93609.53
2022-12-25T07:02:58.273Z,93610.63
2022-12-25T07:04:33.146Z,93608.81
2022-12-25T07:06:05.017Z,93617.13
2022-12-25T07:07:36.756Z,93614.25
2022-12-25T07:09:08.517Z,93614.53
2022-12-25T07:10:50.804Z,93614.78
2022-12-25T07:12:28.581Z,93620.69
2022-12-25T07:14:02.489Z,93626.28
2022-12-25T07:15:45.807Z,93631.06
2022-12-25T07:17:17.638Z,93630.53
2022-12-25T07:18:49.290Z,93634.25
2022-12-25T07:20:20.985Z,93636.94
2022-12-25T07:21:52.581Z,93639.09
2022-12-25T07:23:24.311Z,93649.50
2022-12-25T07:24:56.113Z,93648.97
2022-12-25T07:26:27.739Z,93649.00
2022-12-25T07:27:59.598Z,93651.94
2022-12-25T07:29:31.527Z,93650.59
2022-12-25T07:31:07.435Z,93655.44
2022-12-25T07:32:39.195Z,93654.63
2022-12-25T07:34:11.169Z,93650.09
2022-12-25T07:35:43.076Z,93653.03
2022-12-25T07:37:14.995Z,93654.66
2022-12-25T07:38:49.795Z,93650.09
2022-12-25T07:40:21.407Z,93658.34
2022-12-25T07:41:53.055Z,93659.44
2022-12-25T07:43:25.976Z,93657.03
2022-12-25T07:44:57.679Z,93662.88
2022-12-25T07:46:29.374Z,93662.06
2022-12-25T07:48:05.156Z,93665.00
2022-12-25T07:49:37.487Z,93669.03
2022-12-25T07:51:10.604Z,93673.88
2022-12-25T07:52:43.870Z,93676.28
2022-12-25T07:54:15.826Z,93668.25
2022-12-25T07:55:47.369Z,93670.94
2022-12-25T07:57:18.927Z,93675.78
2022-12-25T07:58:50.676Z,93679.78
2022-12-25T08:00:22.618Z,93687.28
2022-12-25T08:01:54.394Z,93693.72
2022-12-25T08:03:26.393Z,93685.94
2022-12-25T08:04:58.187Z,93689.69
2022-12-25T08:06:30.878Z,93691.53
2022-12-25T08:08:02.530Z,93691.53
2022-12-25T08:09:34.387Z,93689.41
2022-12-25T08:11:07.642Z,93691.81
2022-12-25T08:12:39.519Z,93692.09
2022-12-25T08:14:11.216Z,93688.09
2022-12-25T08:15:43.079Z,93689.16
2022-12-25T08:17:15.280Z,93692.91
2022-12-25T08:18:47.589Z,93692.06
2022-12-25T08:20:20.491Z,93700.88
2022-12-25T08:21:52.204Z,93698.72
2022-12-25T08:23:23.867Z,93690.09
2022-12-25T08:24:55.464Z,93694.84
2022-12-25T08:26:26.979Z,93702.88
2022-12-25T08:27:59.703Z,93708.47
2022-12-25T08:29:31.328Z,93689.13
2022-12-25T08:31:06.895Z,93692.59
2022-12-25T08:32:38.707Z,93690.25
2022-12-25T08:34:10.408Z,93690.03
2022-12-25T08:35:42.722Z,93689.00
2022-12-25T08:37:14.572Z,93689.25
2022-12-25T08:38:46.128Z,93686.84
2022-12-25T08:40:18.337Z,93691.44
2022-12-25T08:41:50.612Z,93681.81
2022-12-25T08:43:22.481Z,93684.44
2022-12-25T08:44:54.139Z,93679.03
2022-12-25T08:46:26.085Z,93681.75
2022-12-25T08:47:59.319Z,93677.47
2022-12-25T08:49:31.428Z,93679.09
2022-12-25T08:51:03.406Z,93681.22
2022-12-25T08:52:35.293Z,93680.91
2022-12-25T08:54:07.198Z,93679.25
2022-12-25T08:55:39.085Z,93694.31
2022-12-25T08:57:11.537Z,93687.66
2022-12-25T08:58:44.189Z,93698.69
2022-12-25T09:00:16.993Z,93694.94
2022-12-25T09:01:48.941Z,93691.78
2022-12-25T09:03:20.781Z,93695.81
2022-12-25T09:04:52.895Z,93699.88
2022-12-25T09:06:24.713Z,93699.84
2022-12-25T09:07:56.519Z,93699.84
2022-12-25T09:09:28.741Z,93703.88
2022-12-25T09:11:04.254Z,93699.84
2022-12-25T09:12:36.371Z,93705.69
2022-12-25T09:14:09.876Z,93704.59
2022-12-25T09:15:42.278Z,93694.94
2022-12-25T09:17:15.726Z,93695.97
2022-12-25T09:18:47.465Z,93692.16
2022-12-25T09:20:19.700Z,93700.69
2022-12-25T09:21:52.396Z,93699.03
2022-12-25T09:23:24.094Z,93695.50
2022-12-25T09:24:56.780Z,93701.34
2022-12-25T09:26:29.017Z,93695.44
2022-12-25T09:28:00.910Z,93706.69
2022-12-25T09:29:33.003Z,93690.38
2022-12-25T09:31:04.945Z,93692.25
2022-12-25T09:32:40.523Z,93691.41
2022-12-25T09:34:17.262Z,93698.72
2022-12-25T09:36:01.257Z,93692.66
2022-12-25T09:37:33.175Z,93690.53
2022-12-25T09:39:04.860Z,93688.59
2022-12-25T09:40:37.625Z,93695.00
2022-12-25T09:42:15.583Z,93694.75
2022-12-25T09:43:53.801Z,93688.91
2022-12-25T09:45:30.639Z,93689.47
2022-12-25T09:47:06.304Z,93680.38
2022-12-25T09:48:38.259Z,93682.53
2022-12-25T09:50:15.690Z,93683.00
2022-12-25T09:51:48.601Z,93686.47
2022-12-25T09:53:23.759Z,93686.72
2022-12-25T09:55:45.162Z,93692.88
2022-12-25T09:57:10.547Z,93692.75
2022-12-25T09:58:42.909Z,93689.19
2022-12-25T10:00:15.679Z,93685.59
2022-12-25T10:01:53.259Z,93682.31
2022-12-25T10:03:29.297Z,93687.06
2022-12-25T10:05:19.555Z,93685.13
2022-12-25T10:06:57.908Z,93675.84
2022-12-25T10:08:41.897Z,93683.28
2022-12-25T10:10:29.949Z,93685.59
2022-12-25T10:12:04.070Z,93683.03
2022-12-25T10:13:48.114Z,93683.13
2022-12-25T10:15:25.944Z,93676.22
2022-12-25T10:17:12.898Z,93681.34
2022-12-25T10:18:53.172Z,93675.41
2022-12-25T10:20:24.987Z,93683.69
2022-12-25T10:21:58.538Z,93688.66
2022-12-25T10:23:30.285Z,93695.66
2022-12-25T10:25:02.819Z,93694.75
2022-12-25T10:26:37.345Z,93682.38
2022-12-25T10:28:15.860Z,93682.09
2022-12-25T10:29:48.184Z,93686.06
2022-12-25T10:31:21.631Z,93678.47
2022-12-25T10:32:54.809Z,93674.72
2022-12-25T10:34:28.287Z,93675.13
2022-12-25T10:36:00.458Z,93676.63
2022-12-25T10:37:32.136Z,93679.78
2022-12-25T10:39:03.901Z,93679.78
2022-12-25T10:40:53.922Z,93684.47
2022-12-25T10:42:31.499Z,93682.19
2022-12-25T10:44:15.084Z,93680.91
2022-12-25T10:45:47.099Z,93685.25
2022-12-25T10:47:22.683Z,93684.69
2022-12-25T10:48:57.974Z,93682.75
2022-12-25T10:50:29.820Z,93678.78
2022-12-25T10:52:02.881Z,93677.34
2022-12-25T10:53:41.764Z,93679.94
2022-12-25T10:55:13.606Z,93681.66
2022-12-25T10:56:55.806Z,93677.09
2022-12-25T10:58:27.910Z,93679.13
2022-12-25T11:00:01.027Z,93673.38
2022-12-25T11:01:32.936Z,93668.28
2022-12-25T11:03:05.310Z,93671.28
2022-12-25T11:04:38.374Z,93673.34
2022-12-25T11:06:23.023Z,93665.06
2022-12-25T11:07:55.647Z,93681.34
2022-12-25T11:09:27.390Z,93673.50
2022-12-25T11:11:06.660Z,93677.72
2022-12-25T11:12:38.617Z,93679.81
2022-12-25T11:14:12.519Z,93675.00
2022-12-25T11:15:45.022Z,93676.94
2022-12-25T11:17:19.139Z,93677.75
2022-12-25T11:18:51.989Z,93675.16
2022-12-25T11:20:24.187Z,93663.22
2022-12-25T11:21:57.537Z,93656.94
2022-12-25T11:23:34.416Z,93667.84
2022-12-25T11:25:15.650Z,93664.59
2022-12-25T11:27:05.638Z,93655.09
2022-12-25T11:28:37.800Z,93662.28
2022-12-25T11:30:16.101Z,93660.91
2022-12-25T11:31:51.183Z,93655.41
2022-12-25T11:33:30.586Z,93660.06
2022-12-25T11:35:02.688Z,93668.34
2022-12-25T11:36:54.479Z,93665.19
2022-12-25T11:38:29.576Z,93664.38
2022-12-25T11:40:01.495Z,93665.19
2022-12-25T11:41:33.563Z,93667.56
2022-12-25T11:43:08.556Z,93663.09
2022-12-25T11:44:58.653Z,93660.44
2022-12-25T11:46:37.238Z,93677.00
2022-12-25T11:48:16.624Z,93664.25
2022-12-25T11:49:58.628Z,93659.47
2022-12-25T11:51:57.635Z,93662.34
2022-12-25T11:53:35.331Z,93663.44
2022-12-25T11:55:27.558Z,93665.34
2022-12-25T11:57:00.740Z,93667.91
2022-12-25T11:58:39.015Z,93667.16
2022-12-25T12:00:13.867Z,93673.22
2022-12-25T12:01:51.113Z,93665.41
2022-12-25T12:03:23.161Z,93664.94
2022-12-25T12:05:03.704Z,93664.63
2022-12-25T12:06:35.761Z,93671.97
2022-12-25T12:08:12.303Z,93662.56
2022-12-25T12:09:49.784Z,93660.03
2022-12-25T12:11:25.651Z,93667.34
2022-12-25T12:12:59.091Z,93663.06
2022-12-25T12:14:34.473Z,93662.75
2022-12-25T12:16:11.054Z,93665.78
2022-12-25T12:17:42.918Z,93664.66
2022-12-25T12:19:35.143Z,93667.84
2022-12-25T12:21:13.619Z,93670.38
2022-12-25T12:22:57.652Z,93667.03
2022-12-25T12:24:40.260Z,93679.00
2022-12-25T12:26:18.372Z,93671.50
2022-12-25T12:28:04.514Z,93677.09
2022-12-25T12:29:48.509Z,93673.13
2022-12-25T12:31:22.263Z,93673.25
2022-12-25T12:32:55.298Z,93679.16
2022-12-25T12:34:30.310Z,93674.19
2022-12-25T12:36:02.869Z,93668.88
2022-12-25T12:37:35.774Z,93679.38
2022-12-25T12:39:10.448Z,93681.59
2022-12-25T12:40:43.473Z,93679.31
2022-12-25T12:42:19.935Z,93681.84
2022-12-25T12:44:00.198Z,93680.91
2022-12-25T12:45:38.203Z,93681.69
2022-12-25T12:47:30.817Z,93681.19
2022-12-25T12:49:09.545Z,93680.75
2022-12-25T12:50:42.136Z,93677.72
2022-12-25T12:52:14.183Z,93673.59
2022-12-25T12:53:51.625Z,93675.84
2022-12-25T12:55:33.469Z,93676.16
2022-12-25T12:57:25.092Z,93675.34
2022-12-25T12:59:09.210Z,93679.00
2022-12-25T13:00:42.506Z,93669.09
2022-12-25T13:02:32.563Z,93676.75
2022-12-25T13:04:42.791Z,93673.72
2022-12-25T13:06:32.953Z,93672.34
2022-12-25T13:08:10.582Z,93678.59
2022-12-25T13:10:01.299Z,93674.59
2022-12-25T13:11:39.050Z,93667.91
2022-12-25T13:13:32.692Z,93671.84
2022-12-25T13:15:04.558Z,93683.47
2022-12-25T13:16:39.839Z,93684.84
2022-12-25T13:18:24.596Z,93683.69
2022-12-25T13:19:58.773Z,93682.50
2022-12-25T13:21:30.759Z,93680.66
2022-12-25T13:23:12.587Z,93685.06
2022-12-25T13:24:44.759Z,93681.50
2022-12-25T13:26:34.033Z,93672.63
2022-12-25T13:28:07.758Z,93678.97
2022-12-25T13:29:44.403Z,93676.34
2022-12-25T13:31:22.169Z,93680.63
2022-12-25T13:32:54.144Z,93677.69
2022-12-25T13:34:33.743Z,93679.84
2022-12-25T13:36:14.941Z,93680.13
2022-12-25T13:37:55.396Z,93691.91
2022-12-25T13:39:51.216Z,93678.91
2022-12-25T13:44:41.309Z,93686.69
2022-12-25T13:46:17.208Z,93684.44
2022-12-25T13:47:55.215Z,93688.94
2022-12-25T13:49:30.964Z,93684.31
2022-12-25T13:51:02.890Z,93685.75
2022-12-25T13:52:44.913Z,93693.91
2022-12-25T13:54:17.267Z,93692.78
2022-12-25T13:57:39.411Z,93679.75
2022-12-25T13:59:20.719Z,93691.75
2022-12-25T14:01:07.497Z,93693.53
2022-12-25T14:02:39.385Z,93691.69
2022-12-25T14:04:21.275Z,93695.06
2022-12-25T14:06:45.622Z,93693.78
2022-12-25T14:07:54.351Z,93695.88
2022-12-25T14:09:28.879Z,93687.59
2022-12-25T14:11:05.003Z,93687.34
2022-12-25T14:12:39.783Z,93689.78
2022-12-25T14:14:16.568Z,93689.81
2022-12-25T14:16:03.752Z,93693.56
2022-12-25T14:17:44.918Z,93691.66
2022-12-25T14:19:43.524Z,93690.91
2022-12-25T14:23:50.434Z,93688.16
2022-12-25T14:25:23.779Z,93702.09
2022-12-25T14:27:18.545Z,93701.34
2022-12-25T14:29:50.189Z,93702.63
2022-12-25T14:31:56.886Z,93706.22
2022-12-25T14:33:28.592Z,93710.84
2022-12-25T14:35:09.484Z,93708.78
2022-12-25T14:36:48.816Z,93708.50
2022-12-25T14:38:25.287Z,93709.47
2022-12-25T14:39:58.066Z,93704.38
2022-12-25T14:41:42.077Z,93707.72
2022-12-25T14:43:23.068Z,93700.81
2022-12-25T14:44:58.987Z,93712.91
2022-12-25T14:46:34.853Z,93698.72
2022-12-25T14:48:25.272Z,93701.06
2022-12-25T14:50:03.105Z,93700.22
2022-12-25T14:51:47.330Z,93700.97
2022-12-25T14:53:23.433Z,93704.09
2022-12-25T14:55:05.311Z,93704.66
2022-12-25T14:56:40.555Z,93707.94
2022-12-25T14:58:17.644Z,93711.31
2022-12-25T14:59:55.144Z,93713.78
2022-12-25T15:01:34.527Z,93707.34
2022-12-25T15:03:07.401Z,93707.03
2022-12-25T15:04:39.153Z,93708.81
2022-12-25T15:06:29.592Z,93709.94
2022-12-25T15:08:11.290Z,93711.19
2022-12-25T15:09:48.123Z,93713.00
2022-12-25T15:11:20.101Z,93712.91
2022-12-25T15:12:51.833Z,93717.19
2022-12-25T15:14:30.421Z,93716.22
2022-12-25T15:16:15.279Z,93718.72
2022-12-25T15:17:47.082Z,93720.59
2022-12-25T15:19:29.237Z,93728.31
2022-12-25T15:21:03.667Z,93728.09
2022-12-25T15:23:09.995Z,93723.31
2022-12-25T15:24:35.804Z,93729.31
2022-12-25T15:26:09.205Z,93733.41
2022-12-25T15:27:44.280Z,93727.63
2022-12-25T15:29:16.018Z,93730.19
2022-12-25T15:30:55.410Z,93724.28
2022-12-25T15:32:29.907Z,93722.88
2022-12-25T15:34:07.842Z,93724.06
2022-12-25T15:35:41.541Z,93724.38
2022-12-25T15:37:13.881Z,93729.34
2022-12-25T15:38:45.794Z,93733.19
2022-12-25T15:40:17.689Z,93733.19
2022-12-25T15:42:09.997Z,93739.78
2022-12-25T15:43:41.808Z,93742.75
2022-12-25T15:45:20.191Z,93739.03
2022-12-25T15:46:52.477Z,93742.97
2022-12-25T15:48:24.412Z,93746.56
2022-12-25T15:49:56.096Z,93742.31
2022-12-25T15:51:27.997Z,93739.50
2022-12-25T15:53:00.184Z,93744.44
2022-12-25T15:54:32.431Z,93742.38
2022-12-25T15:56:04.346Z,93737.38
2022-12-25T15:57:36.298Z,93743.09
2022-12-25T15:59:09.810Z,93745.88
2022-12-25T16:00:41.317Z,93739.47
2022-12-25T16:02:17.184Z,93741.16
2022-12-25T16:03:49.848Z,93736.63
2022-12-25T16:05:22.391Z,93739.34
2022-12-25T16:06:54.985Z,93738.63
2022-12-25T16:08:26.635Z,93744.88
2022-12-25T16:09:58.193Z,93754.56
2022-12-25T16:11:29.997Z,93752.22
2022-12-25T16:13:01.891Z,93756.06
2022-12-25T16:14:33.570Z,93751.00
2022-12-25T16:16:07.247Z,93753.78
2022-12-25T16:17:39.146Z,93756.50
2022-12-25T16:19:11.456Z,93757.09
2022-12-25T16:20:43.647Z,93756.84
2022-12-25T16:22:19.207Z,93765.47
2022-12-25T16:23:50.762Z,93764.44
2022-12-25T16:25:22.696Z,93766.09
2022-12-25T16:26:54.513Z,93759.94
2022-12-25T16:28:26.225Z,93761.91
2022-12-25T16:29:57.835Z,93754.69
2022-12-25T16:31:29.783Z,93765.22
2022-12-25T16:33:01.533Z,93762.81
2022-12-25T16:34:33.523Z,93758.34
2022-12-25T16:36:06.114Z,93752.22
2022-12-25T16:37:39.254Z,93756.84
2022-12-25T16:39:11.047Z,93757.19
2022-12-25T16:40:43.224Z,93765.03
2022-12-25T16:42:15.043Z,93758.66
2022-12-25T16:43:47.068Z,93748.22
2022-12-25T16:45:18.686Z,93756.00
2022-12-25T16:46:50.714Z,93757.59
2022-12-25T16:48:22.412Z,93758.63
2022-12-25T16:49:54.546Z,93749.50
2022-12-25T16:51:26.386Z,93760.19
2022-12-25T16:52:58.012Z,93756.66
2022-12-25T16:54:30.080Z,93769.25
2022-12-25T16:56:15.675Z,93759.53
2022-12-25T16:57:53.457Z,93769.19
2022-12-25T16:59:25.525Z,93775.59
2022-12-25T17:01:03.693Z,93778.56
2022-12-25T17:02:38.265Z,93778.38
2022-12-25T17:04:10.382Z,93778.75
2022-12-25T17:05:42.227Z,93778.75
2022-12-25T17:07:14.317Z,93788.22
2022-12-25T17:08:46.686Z,93783.16
2022-12-25T17:10:18.650Z,93786.41
2022-12-25T17:11:50.833Z,93791.50
2022-12-25T17:13:22.472Z,93794.22
2022-12-25T17:14:57.985Z,93793.44
2022-12-25T17:16:30.513Z,93794.78
2022-12-25T17:18:02.574Z,93799.06
2022-12-25T17:19:34.495Z,93799.38
2022-12-25T17:21:06.597Z,93802.59
2022-12-25T17:22:38.366Z,93796.19
2022-12-25T17:24:10.181Z,93794.59
2022-12-25T17:25:42.264Z,93801.25
2022-12-25T17:27:13.913Z,93798.56
2022-12-25T17:28:45.552Z,93796.41
2022-12-25T17:30:18.303Z,93805.81
2022-12-25T17:31:50.411Z,93801.25
2022-12-25T17:33:22.535Z,93801.50
2022-12-25T17:34:54.458Z,93799.38
2022-12-25T17:36:26.233Z,93803.38
2022-12-25T17:37:58.033Z,93803.66
2022-12-25T17:39:30.347Z,93808.50
2022-12-25T17:41:02.761Z,93809.88
2022-12-25T17:42:34.675Z,93806.13
2022-12-25T17:44:08.889Z,93816.31
2022-12-25T17:45:43.163Z,93822.75
2022-12-25T17:47:15.106Z,93819.53
2022-12-25T17:48:47.268Z,93817.16
2022-12-25T17:50:18.920Z,93813.94
2022-12-25T17:51:50.690Z,93812.06
2022-12-25T17:53:22.572Z,93817.97
2022-12-25T17:54:56.313Z,93830.84
2022-12-25T17:56:28.170Z,93829.75
2022-12-25T17:57:59.776Z,93819.84
2022-12-25T17:59:31.369Z,93823.31
2022-12-25T18:01:10.412Z,93820.38
2022-12-25T18:02:47.730Z,93819.31
2022-12-25T18:04:19.765Z,93822.78
2022-12-25T18:05:51.416Z,93822.50
2022-12-25T18:07:23.377Z,93822.22
2022-12-25T18:08:55.554Z,93817.97
2022-12-25T18:10:27.291Z,93815.53
2022-12-25T18:11:59.569Z,93806.69
2022-12-25T18:13:31.187Z,93816.34
2022-12-25T18:15:02.892Z,93821.97
2022-12-25T18:16:35.388Z,93825.47
2022-12-25T18:18:07.325Z,93824.38
2022-12-25T18:19:39.159Z,93819.84
2022-12-25T18:21:12.651Z,93827.34
2022-12-25T18:22:44.274Z,93821.97
2022-12-25T18:24:16.097Z,93826.31
2022-12-25T18:25:48.325Z,93830.38
2022-12-25T18:27:21.030Z,93828.22
2022-12-25T18:28:52.703Z,93820.47
2022-12-25T18:30:25.017Z,93821.53
2022-12-25T18:31:56.892Z,93818.91
2022-12-25T18:33:28.656Z,93828.53
2022-12-25T18:35:00.501Z,93820.50
2022-12-25T18:36:32.531Z,93822.38
2022-12-25T18:39:56.460Z,93832.84
2022-12-25T18:41:30.041Z,93831.25
2022-12-25T18:43:03.684Z,93826.16
2022-12-25T18:44:35.688Z,93825.91
2022-12-25T18:46:16.071Z,93832.59
2022-12-25T18:47:48.020Z,93825.09
2022-12-25T18:49:23.247Z,93826.44
2022-12-25T18:50:59.348Z,93828.56
2022-12-25T18:52:49.174Z,93832.31
2022-12-25T18:54:22.955Z,93833.38
2022-12-25T18:55:56.076Z,93836.06
2022-12-25T18:57:27.908Z,93833.66
2022-12-25T18:59:01.148Z,93833.09